sensor_id;sensor_type;location;lat;lon;timestamp;P1;durP1;ratioP1;P2;durP2;ratioP2
77872;SDS011;67068;52.116;4.440;2023-05-10T00:01:10;6.23;;;2.03;;
77872;SDS011;67068;52.116;4.440;2023-05-10T00:03:35;6.83;;;2.70;;
77872;SDS011;67068;52.116;4.440;2023-05-10T00:06:00;5.93;;;2.20;;
77872;SDS011;67068;52.116;4.440;2023-05-10T00:08:25;6.70;;;2.13;;
77872;SDS011;67068;52.116;4.440;2023-05-10T00:10:51;5.70;;;2.23;;
77872;SDS011;67068;52.116;4.440;2023-05-10T00:13:16;5.80;;;2.33;;
77872;SDS011;67068;52.116;4.440;2023-05-10T00:15:41;5.10;;;1.90;;
77872;SDS011;67068;52.116;4.440;2023-05-10T00:18:07;6.83;;;2.67;;
77872;SDS011;67068;52.116;4.440;2023-05-10T00:20:32;6.43;;;2.40;;
77872;SDS011;67068;52.116;4.440;2023-05-10T00:22:57;6.17;;;2.27;;
77872;SDS011;67068;52.116;4.440;2023-05-10T00:25:22;7.40;;;2.80;;
77872;SDS011;67068;52.116;4.440;2023-05-10T00:27:48;7.00;;;2.40;;
77872;SDS011;67068;52.116;4.440;2023-05-10T00:30:13;8.32;;;2.70;;
77872;SDS011;67068;52.116;4.440;2023-05-10T00:32:38;6.53;;;2.37;;
77872;SDS011;67068;52.116;4.440;2023-05-10T00:35:04;6.53;;;2.37;;
77872;SDS011;67068;52.116;4.440;2023-05-10T00:37:29;6.00;;;2.22;;
77872;SDS011;67068;52.116;4.440;2023-05-10T00:39:54;6.03;;;2.20;;
77872;SDS011;67068;52.116;4.440;2023-05-10T00:42:20;5.70;;;2.20;;
77872;SDS011;67068;52.116;4.440;2023-05-10T00:44:45;5.50;;;2.13;;
77872;SDS011;67068;52.116;4.440;2023-05-10T00:47:11;7.45;;;2.60;;
77872;SDS011;67068;52.116;4.440;2023-05-10T00:49:36;5.50;;;2.00;;
77872;SDS011;67068;52.116;4.440;2023-05-10T00:52:02;6.60;;;2.28;;
77872;SDS011;67068;52.116;4.440;2023-05-10T00:54:28;6.00;;;2.00;;
77872;SDS011;67068;52.116;4.440;2023-05-10T00:56:53;5.87;;;2.10;;
77872;SDS011;67068;52.116;4.440;2023-05-10T00:59:18;5.75;;;2.10;;
77872;SDS011;67068;52.116;4.440;2023-05-10T01:01:44;5.97;;;1.92;;
77872;SDS011;67068;52.116;4.440;2023-05-10T01:04:11;4.85;;;1.73;;
77872;SDS011;67068;52.116;4.440;2023-05-10T01:06:37;5.38;;;2.10;;
77872;SDS011;67068;52.116;4.440;2023-05-10T01:09:02;5.17;;;1.70;;
77872;SDS011;67068;52.116;4.440;2023-05-10T01:11:28;8.20;;;2.40;;
77872;SDS011;67068;52.116;4.440;2023-05-10T01:13:55;5.60;;;2.20;;
77872;SDS011;67068;52.116;4.440;2023-05-10T01:16:21;7.00;;;2.33;;
77872;SDS011;67068;52.116;4.440;2023-05-10T01:18:47;5.88;;;2.30;;
77872;SDS011;67068;52.116;4.440;2023-05-10T01:23:44;5.72;;;2.22;;
77872;SDS011;67068;52.116;4.440;2023-05-10T01:31:22;6.60;;;2.67;;
77872;SDS011;67068;52.116;4.440;2023-05-10T01:33:55;7.00;;;2.53;;
77872;SDS011;67068;52.116;4.440;2023-05-10T01:39:01;7.50;;;2.45;;
77872;SDS011;67068;52.116;4.440;2023-05-10T01:41:36;6.57;;;2.30;;
77872;SDS011;67068;52.116;4.440;2023-05-10T01:46:49;7.07;;;2.50;;
77872;SDS011;67068;52.116;4.440;2023-05-10T01:49:25;6.00;;;2.47;;
77872;SDS011;67068;52.116;4.440;2023-05-10T01:51:52;6.13;;;2.40;;
77872;SDS011;67068;52.116;4.440;2023-05-10T01:54:19;7.05;;;2.60;;
77872;SDS011;67068;52.116;4.440;2023-05-10T01:56:45;7.75;;;2.58;;
77872;SDS011;67068;52.116;4.440;2023-05-10T01:59:13;6.97;;;2.70;;
77872;SDS011;67068;52.116;4.440;2023-05-10T02:01:40;6.68;;;2.40;;
77872;SDS011;67068;52.116;4.440;2023-05-10T02:04:06;5.88;;;2.20;;
77872;SDS011;67068;52.116;4.440;2023-05-10T02:06:31;6.90;;;2.72;;
77872;SDS011;67068;52.116;4.440;2023-05-10T02:08:57;6.53;;;2.20;;
77872;SDS011;67068;52.116;4.440;2023-05-10T02:11:23;6.97;;;2.50;;
77872;SDS011;67068;52.116;4.440;2023-05-10T02:13:49;6.63;;;2.40;;
77872;SDS011;67068;52.116;4.440;2023-05-10T02:16:15;7.78;;;2.50;;
77872;SDS011;67068;52.116;4.440;2023-05-10T02:18:41;6.30;;;2.45;;
77872;SDS011;67068;52.116;4.440;2023-05-10T02:21:06;7.15;;;2.70;;
77872;SDS011;67068;52.116;4.440;2023-05-10T02:23:32;7.07;;;2.60;;
77872;SDS011;67068;52.116;4.440;2023-05-10T02:25:59;6.55;;;2.45;;
77872;SDS011;67068;52.116;4.440;2023-05-10T02:28:25;6.65;;;2.60;;
77872;SDS011;67068;52.116;4.440;2023-05-10T02:30:51;6.80;;;2.42;;
77872;SDS011;67068;52.116;4.440;2023-05-10T02:33:17;6.57;;;2.50;;
77872;SDS011;67068;52.116;4.440;2023-05-10T02:35:43;7.35;;;2.47;;
77872;SDS011;67068;52.116;4.440;2023-05-10T02:38:08;6.82;;;2.60;;
77872;SDS011;67068;52.116;4.440;2023-05-10T02:40:34;7.25;;;2.47;;
77872;SDS011;67068;52.116;4.440;2023-05-10T02:43:01;6.90;;;2.70;;
77872;SDS011;67068;52.116;4.440;2023-05-10T02:45:27;7.15;;;2.38;;
77872;SDS011;67068;52.116;4.440;2023-05-10T02:47:54;7.75;;;2.97;;
77872;SDS011;67068;52.116;4.440;2023-05-10T02:50:19;7.28;;;2.80;;
77872;SDS011;67068;52.116;4.440;2023-05-10T02:52:46;8.27;;;3.22;;
77872;SDS011;67068;52.116;4.440;2023-05-10T02:55:12;8.50;;;2.88;;
77872;SDS011;67068;52.116;4.440;2023-05-10T02:57:51;8.13;;;2.72;;
77872;SDS011;67068;52.116;4.440;2023-05-10T03:00:16;7.68;;;2.75;;
77872;SDS011;67068;52.116;4.440;2023-05-10T03:02:42;6.88;;;2.90;;
77872;SDS011;67068;52.116;4.440;2023-05-10T03:05:07;7.37;;;2.43;;
77872;SDS011;67068;52.116;4.440;2023-05-10T03:07:32;7.55;;;2.40;;
77872;SDS011;67068;52.116;4.440;2023-05-10T03:09:58;8.27;;;2.70;;
77872;SDS011;67068;52.116;4.440;2023-05-10T03:12:31;7.80;;;2.95;;
77872;SDS011;67068;52.116;4.440;2023-05-10T03:17:23;9.60;;;3.87;;
77872;SDS011;67068;52.116;4.440;2023-05-10T03:19:52;9.82;;;3.47;;
77872;SDS011;67068;52.116;4.440;2023-05-10T03:22:24;8.85;;;3.60;;
77872;SDS011;67068;52.116;4.440;2023-05-10T03:24:49;10.52;;;3.55;;
77872;SDS011;67068;52.116;4.440;2023-05-10T03:27:16;9.55;;;3.50;;
77872;SDS011;67068;52.116;4.440;2023-05-10T03:29:42;9.73;;;3.15;;
77872;SDS011;67068;52.116;4.440;2023-05-10T03:32:07;9.65;;;4.10;;
77872;SDS011;67068;52.116;4.440;2023-05-10T03:34:33;9.27;;;3.88;;
77872;SDS011;67068;52.116;4.440;2023-05-10T03:36:58;9.43;;;3.63;;
77872;SDS011;67068;52.116;4.440;2023-05-10T03:39:23;9.52;;;3.75;;
77872;SDS011;67068;52.116;4.440;2023-05-10T03:41:49;8.35;;;3.40;;
77872;SDS011;67068;52.116;4.440;2023-05-10T03:44:14;9.40;;;3.37;;
77872;SDS011;67068;52.116;4.440;2023-05-10T03:46:40;7.73;;;3.30;;
77872;SDS011;67068;52.116;4.440;2023-05-10T03:49:05;8.80;;;3.80;;
77872;SDS011;67068;52.116;4.440;2023-05-10T03:51:30;10.20;;;4.17;;
77872;SDS011;67068;52.116;4.440;2023-05-10T03:53:56;9.48;;;3.97;;
77872;SDS011;67068;52.116;4.440;2023-05-10T03:56:21;10.13;;;4.07;;
77872;SDS011;67068;52.116;4.440;2023-05-10T03:58:46;9.17;;;3.97;;
77872;SDS011;67068;52.116;4.440;2023-05-10T04:01:12;9.80;;;3.90;;
77872;SDS011;67068;52.116;4.440;2023-05-10T04:03:37;8.73;;;3.77;;
77872;SDS011;67068;52.116;4.440;2023-05-10T04:06:03;8.65;;;3.80;;
77872;SDS011;67068;52.116;4.440;2023-05-10T04:08:28;9.35;;;3.60;;
77872;SDS011;67068;52.116;4.440;2023-05-10T04:10:54;9.02;;;3.42;;
77872;SDS011;67068;52.116;4.440;2023-05-10T04:13:19;9.23;;;3.90;;
77872;SDS011;67068;52.116;4.440;2023-05-10T04:15:44;9.53;;;3.83;;
77872;SDS011;67068;52.116;4.440;2023-05-10T04:18:10;9.13;;;3.53;;
77872;SDS011;67068;52.116;4.440;2023-05-10T04:20:35;10.43;;;4.47;;
77872;SDS011;67068;52.116;4.440;2023-05-10T04:23:00;10.15;;;3.75;;
77872;SDS011;67068;52.116;4.440;2023-05-10T04:25:26;10.82;;;4.25;;
77872;SDS011;67068;52.116;4.440;2023-05-10T04:27:51;10.07;;;3.77;;
77872;SDS011;67068;52.116;4.440;2023-05-10T04:30:16;8.73;;;3.10;;
77872;SDS011;67068;52.116;4.440;2023-05-10T04:32:42;9.40;;;3.93;;
77872;SDS011;67068;52.116;4.440;2023-05-10T04:35:07;9.07;;;3.83;;
77872;SDS011;67068;52.116;4.440;2023-05-10T04:37:32;9.65;;;3.95;;
77872;SDS011;67068;52.116;4.440;2023-05-10T04:39:58;9.97;;;4.03;;
77872;SDS011;67068;52.116;4.440;2023-05-10T04:42:24;10.10;;;4.47;;
77872;SDS011;67068;52.116;4.440;2023-05-10T04:44:50;10.18;;;3.95;;
77872;SDS011;67068;52.116;4.440;2023-05-10T04:47:16;10.02;;;3.55;;
77872;SDS011;67068;52.116;4.440;2023-05-10T04:49:42;10.47;;;4.77;;
77872;SDS011;67068;52.116;4.440;2023-05-10T04:52:07;10.90;;;4.47;;
77872;SDS011;67068;52.116;4.440;2023-05-10T04:54:32;10.10;;;4.20;;
77872;SDS011;67068;52.116;4.440;2023-05-10T04:56:57;11.17;;;4.53;;
77872;SDS011;67068;52.116;4.440;2023-05-10T04:59:22;9.97;;;4.10;;
77872;SDS011;67068;52.116;4.440;2023-05-10T05:01:48;10.40;;;3.90;;
77872;SDS011;67068;52.116;4.440;2023-05-10T05:04:13;10.43;;;3.97;;
77872;SDS011;67068;52.116;4.440;2023-05-10T05:06:39;9.65;;;3.63;;
77872;SDS011;67068;52.116;4.440;2023-05-10T05:09:04;9.63;;;4.40;;
77872;SDS011;67068;52.116;4.440;2023-05-10T05:11:30;11.32;;;4.25;;
77872;SDS011;67068;52.116;4.440;2023-05-10T05:13:55;9.37;;;3.80;;
77872;SDS011;67068;52.116;4.440;2023-05-10T05:16:20;8.57;;;3.50;;
77872;SDS011;67068;52.116;4.440;2023-05-10T05:18:46;10.30;;;4.07;;
77872;SDS011;67068;52.116;4.440;2023-05-10T05:21:15;8.33;;;3.80;;
77872;SDS011;67068;52.116;4.440;2023-05-10T05:23:41;9.93;;;4.05;;
77872;SDS011;67068;52.116;4.440;2023-05-10T05:26:06;8.50;;;3.60;;
77872;SDS011;67068;52.116;4.440;2023-05-10T05:28:31;8.87;;;3.50;;
77872;SDS011;67068;52.116;4.440;2023-05-10T05:30:58;10.30;;;3.80;;
77872;SDS011;67068;52.116;4.440;2023-05-10T05:33:24;9.10;;;3.47;;
77872;SDS011;67068;52.116;4.440;2023-05-10T05:35:49;9.33;;;3.67;;
77872;SDS011;67068;52.116;4.440;2023-05-10T05:38:15;8.02;;;3.22;;
77872;SDS011;67068;52.116;4.440;2023-05-10T05:40:41;7.72;;;2.80;;
77872;SDS011;67068;52.116;4.440;2023-05-10T05:43:06;7.60;;;2.97;;
77872;SDS011;67068;52.116;4.440;2023-05-10T05:45:31;8.57;;;2.93;;
77872;SDS011;67068;52.116;4.440;2023-05-10T05:47:56;7.57;;;2.63;;
77872;SDS011;67068;52.116;4.440;2023-05-10T05:50:21;9.33;;;3.37;;
77872;SDS011;67068;52.116;4.440;2023-05-10T05:52:47;7.80;;;2.77;;
77872;SDS011;67068;52.116;4.440;2023-05-10T05:55:12;6.90;;;2.70;;
77872;SDS011;67068;52.116;4.440;2023-05-10T05:57:37;6.82;;;2.75;;
77872;SDS011;67068;52.116;4.440;2023-05-10T06:00:03;7.15;;;2.90;;
77872;SDS011;67068;52.116;4.440;2023-05-10T06:02:29;7.32;;;2.55;;
77872;SDS011;67068;52.116;4.440;2023-05-10T06:04:54;7.47;;;2.70;;
77872;SDS011;67068;52.116;4.440;2023-05-10T06:07:19;6.27;;;2.23;;
77872;SDS011;67068;52.116;4.440;2023-05-10T06:09:45;7.80;;;2.60;;
77872;SDS011;67068;52.116;4.440;2023-05-10T06:12:10;6.43;;;2.27;;
77872;SDS011;67068;52.116;4.440;2023-05-10T06:14:36;6.60;;;2.40;;
77872;SDS011;67068;52.116;4.440;2023-05-10T06:17:01;6.43;;;2.47;;
77872;SDS011;67068;52.116;4.440;2023-05-10T06:19:28;6.53;;;2.20;;
77872;SDS011;67068;52.116;4.440;2023-05-10T06:21:54;5.60;;;1.83;;
77872;SDS011;67068;52.116;4.440;2023-05-10T06:24:19;6.55;;;2.20;;
77872;SDS011;67068;52.116;4.440;2023-05-10T06:26:46;7.38;;;2.20;;
77872;SDS011;67068;52.116;4.440;2023-05-10T06:29:11;5.93;;;2.10;;
77872;SDS011;67068;52.116;4.440;2023-05-10T06:31:37;5.47;;;1.97;;
77872;SDS011;67068;52.116;4.440;2023-05-10T06:34:02;7.45;;;2.15;;
77872;SDS011;67068;52.116;4.440;2023-05-10T06:36:27;6.23;;;2.20;;
77872;SDS011;67068;52.116;4.440;2023-05-10T06:38:52;5.30;;;1.90;;
77872;SDS011;67068;52.116;4.440;2023-05-10T06:41:18;5.22;;;1.67;;
77872;SDS011;67068;52.116;4.440;2023-05-10T06:43:43;5.80;;;2.17;;
77872;SDS011;67068;52.116;4.440;2023-05-10T06:46:08;5.97;;;2.13;;
77872;SDS011;67068;52.116;4.440;2023-05-10T06:48:34;5.60;;;1.80;;
77872;SDS011;67068;52.116;4.440;2023-05-10T06:50:59;5.60;;;2.05;;
77872;SDS011;67068;52.116;4.440;2023-05-10T06:53:24;5.17;;;1.80;;
77872;SDS011;67068;52.116;4.440;2023-05-10T06:55:50;4.90;;;1.83;;
77872;SDS011;67068;52.116;4.440;2023-05-10T06:58:15;5.82;;;1.80;;
77872;SDS011;67068;52.116;4.440;2023-05-10T07:00:41;5.82;;;2.10;;
77872;SDS011;67068;52.116;4.440;2023-05-10T07:03:08;7.60;;;2.17;;
77872;SDS011;67068;52.116;4.440;2023-05-10T07:05:34;4.75;;;1.77;;
77872;SDS011;67068;52.116;4.440;2023-05-10T07:07:59;4.70;;;1.80;;
77872;SDS011;67068;52.116;4.440;2023-05-10T07:10:24;4.43;;;1.50;;
77872;SDS011;67068;52.116;4.440;2023-05-10T07:12:50;5.13;;;1.97;;
77872;SDS011;67068;52.116;4.440;2023-05-10T07:15:15;5.63;;;1.80;;
77872;SDS011;67068;52.116;4.440;2023-05-10T07:17:40;4.78;;;1.60;;
77872;SDS011;67068;52.116;4.440;2023-05-10T07:20:06;4.60;;;1.60;;
77872;SDS011;67068;52.116;4.440;2023-05-10T07:22:31;4.93;;;1.80;;
77872;SDS011;67068;52.116;4.440;2023-05-10T07:24:57;4.20;;;1.50;;
77872;SDS011;67068;52.116;4.440;2023-05-10T07:27:22;4.93;;;1.77;;
77872;SDS011;67068;52.116;4.440;2023-05-10T07:29:47;6.03;;;2.00;;
77872;SDS011;67068;52.116;4.440;2023-05-10T07:32:12;5.77;;;1.77;;
77872;SDS011;67068;52.116;4.440;2023-05-10T07:34:37;5.77;;;1.57;;
77872;SDS011;67068;52.116;4.440;2023-05-10T07:37:03;6.30;;;2.07;;
77872;SDS011;67068;52.116;4.440;2023-05-10T07:39:28;4.77;;;1.70;;
77872;SDS011;67068;52.116;4.440;2023-05-10T07:41:53;5.23;;;1.73;;
77872;SDS011;67068;52.116;4.440;2023-05-10T07:44:19;5.72;;;1.70;;
77872;SDS011;67068;52.116;4.440;2023-05-10T07:46:45;6.10;;;1.88;;
77872;SDS011;67068;52.116;4.440;2023-05-10T07:49:10;4.38;;;1.60;;
77872;SDS011;67068;52.116;4.440;2023-05-10T07:51:35;4.60;;;1.70;;
77872;SDS011;67068;52.116;4.440;2023-05-10T07:54:01;4.20;;;1.50;;
77872;SDS011;67068;52.116;4.440;2023-05-10T07:56:28;5.15;;;1.70;;
77872;SDS011;67068;52.116;4.440;2023-05-10T07:58:57;4.05;;;1.63;;
77872;SDS011;67068;52.116;4.440;2023-05-10T08:01:23;5.28;;;1.70;;
77872;SDS011;67068;52.116;4.440;2023-05-10T08:03:48;4.88;;;1.80;;
77872;SDS011;67068;52.116;4.440;2023-05-10T08:06:14;5.35;;;1.83;;
77872;SDS011;67068;52.116;4.440;2023-05-10T08:08:40;4.20;;;1.73;;
77872;SDS011;67068;52.116;4.440;2023-05-10T08:11:05;4.65;;;1.67;;
77872;SDS011;67068;52.116;4.440;2023-05-10T08:13:31;4.47;;;1.40;;
77872;SDS011;67068;52.116;4.440;2023-05-10T08:15:56;3.58;;;1.35;;
77872;SDS011;67068;52.116;4.440;2023-05-10T08:18:21;4.40;;;1.50;;
77872;SDS011;67068;52.116;4.440;2023-05-10T08:20:46;3.40;;;1.33;;
77872;SDS011;67068;52.116;4.440;2023-05-10T08:23:12;4.77;;;1.40;;
77872;SDS011;67068;52.116;4.440;2023-05-10T08:25:37;4.25;;;1.33;;
77872;SDS011;67068;52.116;4.440;2023-05-10T08:28:03;3.97;;;1.43;;
77872;SDS011;67068;52.116;4.440;2023-05-10T08:30:28;3.83;;;1.30;;
77872;SDS011;67068;52.116;4.440;2023-05-10T08:32:53;4.53;;;1.40;;
77872;SDS011;67068;52.116;4.440;2023-05-10T08:35:18;3.17;;;1.23;;
77872;SDS011;67068;52.116;4.440;2023-05-10T08:37:44;5.03;;;1.47;;
77872;SDS011;67068;52.116;4.440;2023-05-10T08:40:09;4.10;;;1.30;;
77872;SDS011;67068;52.116;4.440;2023-05-10T08:42:36;4.65;;;1.40;;
77872;SDS011;67068;52.116;4.440;2023-05-10T08:45:05;4.00;;;1.30;;
77872;SDS011;67068;52.116;4.440;2023-05-10T08:47:31;4.20;;;1.52;;
77872;SDS011;67068;52.116;4.440;2023-05-10T08:49:57;3.17;;;1.10;;
77872;SDS011;67068;52.116;4.440;2023-05-10T08:52:24;3.10;;;1.08;;
77872;SDS011;67068;52.116;4.440;2023-05-10T08:54:51;4.00;;;1.55;;
77872;SDS011;67068;52.116;4.440;2023-05-10T08:57:16;4.40;;;1.40;;
77872;SDS011;67068;52.116;4.440;2023-05-10T08:59:42;3.17;;;1.20;;
77872;SDS011;67068;52.116;4.440;2023-05-10T09:02:07;3.37;;;1.30;;
77872;SDS011;67068;52.116;4.440;2023-05-10T09:04:33;4.28;;;1.40;;
77872;SDS011;67068;52.116;4.440;2023-05-10T09:06:58;5.63;;;1.40;;
77872;SDS011;67068;52.116;4.440;2023-05-10T09:09:23;4.73;;;1.50;;
77872;SDS011;67068;52.116;4.440;2023-05-10T09:11:50;5.22;;;1.60;;
77872;SDS011;67068;52.116;4.440;2023-05-10T09:14:16;5.07;;;1.48;;
77872;SDS011;67068;52.116;4.440;2023-05-10T09:16:42;3.95;;;1.50;;
77872;SDS011;67068;52.116;4.440;2023-05-10T09:19:07;3.30;;;1.38;;
77872;SDS011;67068;52.116;4.440;2023-05-10T09:21:34;4.35;;;1.15;;
77872;SDS011;67068;52.116;4.440;2023-05-10T09:24:02;4.60;;;1.52;;
77872;SDS011;67068;52.116;4.440;2023-05-10T09:26:28;4.15;;;1.50;;
77872;SDS011;67068;52.116;4.440;2023-05-10T09:28:54;4.63;;;1.50;;
77872;SDS011;67068;52.116;4.440;2023-05-10T09:31:21;4.90;;;1.58;;
77872;SDS011;67068;52.116;4.440;2023-05-10T09:33:47;4.45;;;1.48;;
77872;SDS011;67068;52.116;4.440;2023-05-10T09:36:12;4.60;;;1.80;;
77872;SDS011;67068;52.116;4.440;2023-05-10T09:41:19;4.53;;;1.42;;
77872;SDS011;67068;52.116;4.440;2023-05-10T09:43:45;3.50;;;1.45;;
77872;SDS011;67068;52.116;4.440;2023-05-10T09:46:11;5.30;;;1.70;;
77872;SDS011;67068;52.116;4.440;2023-05-10T09:48:43;3.72;;;1.40;;
77872;SDS011;67068;52.116;4.440;2023-05-10T09:51:08;4.07;;;1.50;;
77872;SDS011;67068;52.116;4.440;2023-05-10T09:53:33;5.07;;;1.67;;
77872;SDS011;67068;52.116;4.440;2023-05-10T09:55:59;4.67;;;1.60;;
77872;SDS011;67068;52.116;4.440;2023-05-10T09:58:24;5.05;;;1.65;;
77872;SDS011;67068;52.116;4.440;2023-05-10T10:00:50;6.22;;;1.88;;
77872;SDS011;67068;52.116;4.440;2023-05-10T10:03:19;5.88;;;1.73;;
77872;SDS011;67068;52.116;4.440;2023-05-10T10:05:45;4.97;;;1.67;;
77872;SDS011;67068;52.116;4.440;2023-05-10T10:08:11;5.60;;;1.90;;
77872;SDS011;67068;52.116;4.440;2023-05-10T10:10:37;5.45;;;1.80;;
77872;SDS011;67068;52.116;4.440;2023-05-10T10:13:03;5.10;;;1.60;;
77872;SDS011;67068;52.116;4.440;2023-05-10T10:15:29;5.35;;;1.70;;
77872;SDS011;67068;52.116;4.440;2023-05-10T10:17:55;4.95;;;1.70;;
77872;SDS011;67068;52.116;4.440;2023-05-10T10:20:21;5.53;;;1.73;;
77872;SDS011;67068;52.116;4.440;2023-05-10T10:22:47;5.65;;;1.83;;
77872;SDS011;67068;52.116;4.440;2023-05-10T10:25:14;5.72;;;1.83;;
77872;SDS011;67068;52.116;4.440;2023-05-10T10:27:56;5.30;;;1.80;;
77872;SDS011;67068;52.116;4.440;2023-05-10T10:30:42;4.97;;;1.75;;
77872;SDS011;67068;52.116;4.440;2023-05-10T10:35:36;6.82;;;1.92;;
77872;SDS011;67068;52.116;4.440;2023-05-10T10:38:01;5.78;;;1.77;;
77872;SDS011;67068;52.116;4.440;2023-05-10T10:42:52;6.33;;;1.97;;
77872;SDS011;67068;52.116;4.440;2023-05-10T10:45:18;7.30;;;2.22;;
77872;SDS011;67068;52.116;4.440;2023-05-10T10:47:44;6.60;;;1.60;;
77872;SDS011;67068;52.116;4.440;2023-05-10T10:50:10;6.03;;;2.03;;
77872;SDS011;67068;52.116;4.440;2023-05-10T10:52:40;5.13;;;1.55;;
77872;SDS011;67068;52.116;4.440;2023-05-10T11:02:47;7.35;;;2.38;;
77872;SDS011;67068;52.116;4.440;2023-05-10T11:07:54;6.50;;;2.30;;
77872;SDS011;67068;52.116;4.440;2023-05-10T11:10:22;6.10;;;1.95;;
77872;SDS011;67068;52.116;4.440;2023-05-10T11:12:51;5.82;;;1.80;;
77872;SDS011;67068;52.116;4.440;2023-05-10T11:15:17;6.40;;;2.00;;
77872;SDS011;67068;52.116;4.440;2023-05-10T11:17:42;7.37;;;2.23;;
77872;SDS011;67068;52.116;4.440;2023-05-10T11:20:08;6.10;;;1.98;;
77872;SDS011;67068;52.116;4.440;2023-05-10T11:22:52;5.95;;;1.90;;
77872;SDS011;67068;52.116;4.440;2023-05-10T11:25:18;7.43;;;2.20;;
77872;SDS011;67068;52.116;4.440;2023-05-10T11:27:43;6.30;;;1.70;;
77872;SDS011;67068;52.116;4.440;2023-05-10T11:30:10;5.20;;;1.90;;
77872;SDS011;67068;52.116;4.440;2023-05-10T11:32:38;6.38;;;2.00;;
77872;SDS011;67068;52.116;4.440;2023-05-10T11:35:07;6.60;;;2.05;;
77872;SDS011;67068;52.116;4.440;2023-05-10T11:37:32;5.88;;;1.80;;
77872;SDS011;67068;52.116;4.440;2023-05-10T11:39:59;6.70;;;2.03;;
77872;SDS011;67068;52.116;4.440;2023-05-10T11:42:24;5.80;;;1.90;;
77872;SDS011;67068;52.116;4.440;2023-05-10T11:44:49;6.30;;;1.97;;
77872;SDS011;67068;52.116;4.440;2023-05-10T11:47:15;7.20;;;2.60;;
77872;SDS011;67068;52.116;4.440;2023-05-10T11:49:43;6.70;;;1.80;;
77872;SDS011;67068;52.116;4.440;2023-05-10T11:52:08;7.82;;;2.10;;
77872;SDS011;67068;52.116;4.440;2023-05-10T11:54:35;7.05;;;2.00;;
77872;SDS011;67068;52.116;4.440;2023-05-10T11:57:01;6.60;;;1.97;;
77872;SDS011;67068;52.116;4.440;2023-05-10T11:59:26;6.30;;;1.93;;
77872;SDS011;67068;52.116;4.440;2023-05-10T12:01:51;5.73;;;1.80;;
77872;SDS011;67068;52.116;4.440;2023-05-10T12:04:16;6.63;;;2.10;;
77872;SDS011;67068;52.116;4.440;2023-05-10T12:06:42;6.47;;;2.23;;
77872;SDS011;67068;52.116;4.440;2023-05-10T12:09:07;6.30;;;2.00;;
77872;SDS011;67068;52.116;4.440;2023-05-10T12:11:35;7.88;;;2.65;;
77872;SDS011;67068;52.116;4.440;2023-05-10T12:14:03;6.38;;;2.08;;
77872;SDS011;67068;52.116;4.440;2023-05-10T12:16:29;6.70;;;1.90;;
77872;SDS011;67068;52.116;4.440;2023-05-10T12:18:59;6.78;;;2.30;;
77872;SDS011;67068;52.116;4.440;2023-05-10T12:21:25;7.13;;;2.10;;
77872;SDS011;67068;52.116;4.440;2023-05-10T12:23:51;7.35;;;2.40;;
77872;SDS011;67068;52.116;4.440;2023-05-10T12:26:17;7.03;;;2.20;;
77872;SDS011;67068;52.116;4.440;2023-05-10T12:28:42;7.37;;;1.93;;
77872;SDS011;67068;52.116;4.440;2023-05-10T12:31:07;7.30;;;2.05;;
77872;SDS011;67068;52.116;4.440;2023-05-10T12:33:40;6.97;;;2.03;;
77872;SDS011;67068;52.116;4.440;2023-05-10T12:36:08;7.28;;;2.30;;
77872;SDS011;67068;52.116;4.440;2023-05-10T12:38:34;7.20;;;2.42;;
77872;SDS011;67068;52.116;4.440;2023-05-10T12:41:00;6.20;;;1.83;;
77872;SDS011;67068;52.116;4.440;2023-05-10T12:43:25;6.03;;;1.77;;
77872;SDS011;67068;52.116;4.440;2023-05-10T12:45:51;8.52;;;2.10;;
77872;SDS011;67068;52.116;4.440;2023-05-10T12:48:16;8.17;;;2.43;;
77872;SDS011;67068;52.116;4.440;2023-05-10T12:50:41;9.47;;;2.40;;
77872;SDS011;67068;52.116;4.440;2023-05-10T12:53:06;7.60;;;2.20;;
77872;SDS011;67068;52.116;4.440;2023-05-10T12:55:32;7.18;;;2.08;;
77872;SDS011;67068;52.116;4.440;2023-05-10T12:57:57;7.57;;;2.37;;
77872;SDS011;67068;52.116;4.440;2023-05-10T13:00:22;8.47;;;2.57;;
77872;SDS011;67068;52.116;4.440;2023-05-10T13:02:47;9.27;;;3.23;;
77872;SDS011;67068;52.116;4.440;2023-05-10T13:05:13;8.53;;;3.30;;
77872;SDS011;67068;52.116;4.440;2023-05-10T13:07:38;9.80;;;3.20;;
77872;SDS011;67068;52.116;4.440;2023-05-10T13:10:04;9.27;;;3.15;;
77872;SDS011;67068;52.116;4.440;2023-05-10T13:12:29;9.13;;;3.03;;
77872;SDS011;67068;52.116;4.440;2023-05-10T13:14:54;10.37;;;3.60;;
77872;SDS011;67068;52.116;4.440;2023-05-10T13:17:19;9.57;;;3.20;;
77872;SDS011;67068;52.116;4.440;2023-05-10T13:19:45;9.40;;;3.17;;
77872;SDS011;67068;52.116;4.440;2023-05-10T13:22:10;10.37;;;3.63;;
77872;SDS011;67068;52.116;4.440;2023-05-10T13:24:35;9.77;;;3.40;;
77872;SDS011;67068;52.116;4.440;2023-05-10T13:27:01;8.18;;;3.10;;
77872;SDS011;67068;52.116;4.440;2023-05-10T13:29:26;9.50;;;3.00;;
77872;SDS011;67068;52.116;4.440;2023-05-10T13:31:51;8.73;;;3.20;;
77872;SDS011;67068;52.116;4.440;2023-05-10T13:34:16;8.60;;;3.67;;
77872;SDS011;67068;52.116;4.440;2023-05-10T13:36:45;8.35;;;3.15;;
77872;SDS011;67068;52.116;4.440;2023-05-10T13:39:10;9.33;;;3.20;;
77872;SDS011;67068;52.116;4.440;2023-05-10T13:41:35;8.10;;;3.27;;
77872;SDS011;67068;52.116;4.440;2023-05-10T13:44:01;9.82;;;3.00;;
77872;SDS011;67068;52.116;4.440;2023-05-10T13:46:27;9.63;;;3.03;;
77872;SDS011;67068;52.116;4.440;2023-05-10T13:48:52;8.30;;;2.85;;
77872;SDS011;67068;52.116;4.440;2023-05-10T13:51:17;8.93;;;2.85;;
77872;SDS011;67068;52.116;4.440;2023-05-10T13:53:44;7.35;;;2.38;;
77872;SDS011;67068;52.116;4.440;2023-05-10T13:56:09;9.30;;;2.83;;
77872;SDS011;67068;52.116;4.440;2023-05-10T13:58:35;9.63;;;2.85;;
77872;SDS011;67068;52.116;4.440;2023-05-10T14:01:01;7.72;;;2.65;;
77872;SDS011;67068;52.116;4.440;2023-05-10T14:03:26;8.02;;;2.75;;
77872;SDS011;67068;52.116;4.440;2023-05-10T14:05:52;7.70;;;2.50;;
77872;SDS011;67068;52.116;4.440;2023-05-10T14:08:17;7.37;;;2.53;;
77872;SDS011;67068;52.116;4.440;2023-05-10T14:10:43;7.15;;;2.30;;
77872;SDS011;67068;52.116;4.440;2023-05-10T14:13:08;8.90;;;2.50;;
77872;SDS011;67068;52.116;4.440;2023-05-10T14:15:33;8.47;;;2.10;;
77872;SDS011;67068;52.116;4.440;2023-05-10T14:17:58;7.73;;;2.40;;
77872;SDS011;67068;52.116;4.440;2023-05-10T14:20:24;8.60;;;2.50;;
77872;SDS011;67068;52.116;4.440;2023-05-10T14:22:49;7.37;;;2.20;;
77872;SDS011;67068;52.116;4.440;2023-05-10T14:25:15;7.20;;;2.43;;
77872;SDS011;67068;52.116;4.440;2023-05-10T14:27:40;6.25;;;2.30;;
77872;SDS011;67068;52.116;4.440;2023-05-10T14:30:06;6.35;;;2.22;;
77872;SDS011;67068;52.116;4.440;2023-05-10T14:32:31;7.57;;;2.38;;
77872;SDS011;67068;52.116;4.440;2023-05-10T14:34:57;7.50;;;2.75;;
77872;SDS011;67068;52.116;4.440;2023-05-10T14:37:22;8.20;;;2.40;;
77872;SDS011;67068;52.116;4.440;2023-05-10T14:39:47;7.00;;;2.50;;
77872;SDS011;67068;52.116;4.440;2023-05-10T14:42:12;7.30;;;2.33;;
77872;SDS011;67068;52.116;4.440;2023-05-10T14:44:37;6.33;;;2.30;;
77872;SDS011;67068;52.116;4.440;2023-05-10T14:47:03;6.70;;;2.10;;
77872;SDS011;67068;52.116;4.440;2023-05-10T14:49:28;6.60;;;2.22;;
77872;SDS011;67068;52.116;4.440;2023-05-10T14:51:54;7.43;;;2.17;;
77872;SDS011;67068;52.116;4.440;2023-05-10T14:54:19;6.83;;;2.43;;
77872;SDS011;67068;52.116;4.440;2023-05-10T14:56:44;7.27;;;2.50;;
77872;SDS011;67068;52.116;4.440;2023-05-10T14:59:10;7.78;;;2.20;;
77872;SDS011;67068;52.116;4.440;2023-05-10T15:01:35;6.60;;;2.40;;
77872;SDS011;67068;52.116;4.440;2023-05-10T15:04:02;9.27;;;2.35;;
77872;SDS011;67068;52.116;4.440;2023-05-10T15:06:31;7.03;;;2.38;;
77872;SDS011;67068;52.116;4.440;2023-05-10T15:08:57;5.55;;;2.10;;
77872;SDS011;67068;52.116;4.440;2023-05-10T15:11:22;6.70;;;1.98;;
77872;SDS011;67068;52.116;4.440;2023-05-10T15:13:47;5.80;;;1.97;;